createdAt,value
2019-05-26T00:00:09.235Z,1009.64
2019-05-26T00:01:09.199Z,1009.62
2019-05-26T00:02:09.187Z,1009.59
2019-05-26T00:03:09.176Z,1009.54
2019-05-26T00:04:09.165Z,1009.58
2019-05-26T00:05:09.179Z,1009.56
2019-05-26T00:06:09.144Z,1009.60
2019-05-26T00:07:09.132Z,1009.57
2019-05-26T00:08:09.121Z,1009.62
2019-05-26T00:09:09.153Z,1009.56
2019-05-26T00:10:09.313Z,1009.54
2019-05-26T00:11:09.097Z,1009.52
2019-05-26T00:12:09.086Z,1009.45
2019-05-26T00:13:09.065Z,1009.49
2019-05-26T00:14:09.060Z,1009.46
2019-05-26T00:15:09.109Z,1009.50
2019-05-26T00:16:09.039Z,1009.47
2019-05-26T00:17:09.024Z,1009.49
2019-05-26T00:18:09.012Z,1009.44
2019-05-26T00:19:09.010Z,1009.40
2019-05-26T00:20:09.014Z,1009.43
2019-05-26T00:21:08.984Z,1009.40
2019-05-26T00:22:08.966Z,1009.41
2019-05-26T00:23:08.956Z,1009.38
2019-05-26T00:24:08.954Z,1009.40
2019-05-26T00:25:08.958Z,1009.44
2019-05-26T00:26:08.923Z,1009.39
2019-05-26T00:27:08.912Z,1009.40
2019-05-26T00:28:08.898Z,1009.39
2019-05-26T00:29:08.888Z,1009.34
2019-05-26T00:30:08.904Z,1009.35
2019-05-26T00:31:08.869Z,1009.34
2019-05-26T00:32:08.876Z,1009.35
2019-05-26T00:33:08.854Z,1009.36
2019-05-26T00:34:08.834Z,1009.33
2019-05-26T00:35:08.856Z,1009.36
2019-05-26T00:36:08.811Z,1009.31
2019-05-26T00:37:08.799Z,1009.31
2019-05-26T00:38:08.790Z,1009.25
2019-05-26T00:39:08.778Z,1009.27
2019-05-26T00:40:08.794Z,1009.28
2019-05-26T00:41:08.758Z,1009.24
2019-05-26T00:42:08.757Z,1009.24
2019-05-26T00:43:08.736Z,1009.27
2019-05-26T00:44:08.724Z,1009.22
2019-05-26T00:45:08.736Z,1009.18
2019-05-26T00:46:08.701Z,1009.20
2019-05-26T00:47:08.689Z,1009.18
2019-05-26T00:48:08.682Z,1009.18
2019-05-26T00:49:08.666Z,1009.24
2019-05-26T00:50:08.679Z,1009.18
2019-05-26T00:51:08.645Z,1009.18
2019-05-26T00:52:08.638Z,1009.23
2019-05-26T00:53:08.624Z,1009.24
2019-05-26T00:54:08.616Z,1009.26
2019-05-26T00:55:08.631Z,1009.22
2019-05-26T00:56:08.591Z,1009.27
2019-05-26T00:57:08.584Z,1009.24
2019-05-26T00:58:08.570Z,1009.22
2019-05-26T00:59:08.560Z,1009.21
2019-05-26T01:00:08.576Z,1009.17
2019-05-26T01:01:08.538Z,1009.21
2019-05-26T01:02:08.548Z,1009.16
2019-05-26T01:03:08.519Z,1009.20
2019-05-26T01:04:08.505Z,1009.20
2019-05-26T01:05:08.516Z,1009.17
2019-05-26T01:06:08.484Z,1009.17
2019-05-26T01:07:08.472Z,1009.14
2019-05-26T01:08:08.458Z,1009.14
2019-05-26T01:09:08.450Z,1009.16
2019-05-26T01:10:08.463Z,1009.16
2019-05-26T01:11:08.425Z,1009.16
2019-05-26T01:12:08.416Z,1009.14
2019-05-26T01:13:08.402Z,1009.10
2019-05-26T01:14:08.392Z,1009.11
2019-05-26T01:15:08.427Z,1009.14
2019-05-26T01:16:08.373Z,1009.10
2019-05-26T01:17:08.363Z,1009.09
2019-05-26T01:18:08.372Z,1009.14
2019-05-26T01:19:08.339Z,1009.13
2019-05-26T01:20:08.353Z,1009.16
2019-05-26T01:21:08.317Z,1009.15
2019-05-26T01:22:08.306Z,1009.12
2019-05-26T01:23:08.294Z,1009.11
2019-05-26T01:24:08.284Z,1009.12
2019-05-26T01:25:08.305Z,1009.11
2019-05-26T01:26:08.260Z,1009.10
2019-05-26T01:27:08.256Z,1009.16
2019-05-26T01:28:08.255Z,1009.14
2019-05-26T01:29:08.230Z,1009.12
2019-05-26T01:30:08.257Z,1009.12
2019-05-26T01:31:08.207Z,1009.13
2019-05-26T01:32:08.196Z,1009.09
2019-05-26T01:33:08.186Z,1009.11
2019-05-26T01:34:08.175Z,1009.12
2019-05-26T01:35:08.189Z,1009.16
2019-05-26T01:36:08.154Z,1009.13
2019-05-26T01:37:08.144Z,1009.18
2019-05-26T01:38:22.578Z,1009.13
2019-05-26T01:39:09.119Z,1009.17
2019-05-26T01:40:08.133Z,1009.20
2019-05-26T01:41:08.120Z,1009.14
2019-05-26T01:42:08.361Z,1009.19
2019-05-26T01:43:08.076Z,1009.14
2019-05-26T01:44:08.065Z,1009.19
2019-05-26T01:45:08.114Z,1009.19
2019-05-26T01:46:08.049Z,1009.17
2019-05-26T01:47:08.033Z,1009.15
2019-05-26T01:48:08.024Z,1009.15
2019-05-26T01:49:08.011Z,1009.14
2019-05-26T01:50:08.028Z,1009.07
2019-05-26T01:51:08.009Z,1009.09
2019-05-26T01:52:07.980Z,1009.07
2019-05-26T01:53:07.966Z,1009.07
2019-05-26T01:54:07.957Z,1009.09
2019-05-26T01:55:07.972Z,1009.12
2019-05-26T01:56:07.935Z,1009.13
2019-05-26T01:57:07.922Z,1009.12
2019-05-26T01:58:07.914Z,1009.17
2019-05-26T01:59:07.904Z,1009.10
2019-05-26T02:00:07.919Z,1009.10
2019-05-26T02:01:07.882Z,1009.10
2019-05-26T02:02:07.871Z,1009.14
2019-05-26T02:03:07.860Z,1009.14
2019-05-26T02:04:07.856Z,1009.16
2019-05-26T02:05:07.863Z,1009.13
2019-05-26T02:06:07.831Z,1009.15
2019-05-26T02:07:07.816Z,1009.19
2019-05-26T02:08:11.658Z,1009.13
2019-05-26T02:09:07.792Z,1009.13
2019-05-26T02:10:07.808Z,1009.14
2019-05-26T02:11:07.770Z,1009.15
2019-05-26T02:12:07.764Z,1009.13
2019-05-26T02:13:07.750Z,1009.09
2019-05-26T02:14:07.758Z,1009.10
2019-05-26T02:15:07.753Z,1009.09
2019-05-26T02:16:07.717Z,1009.10
2019-05-26T02:17:07.706Z,1009.10
2019-05-26T02:18:07.694Z,1009.12
2019-05-26T02:19:07.682Z,1009.07
2019-05-26T02:20:07.699Z,1009.10
2019-05-26T02:21:07.762Z,1009.12
2019-05-26T02:22:07.648Z,1009.14
2019-05-26T02:23:07.639Z,1009.09
2019-05-26T02:24:07.628Z,1009.09
2019-05-26T02:25:07.639Z,1009.07
2019-05-26T02:26:07.603Z,1009.12
2019-05-26T02:27:07.591Z,1009.09
2019-05-26T02:28:07.582Z,1009.09
2019-05-26T02:29:07.643Z,1009.13
2019-05-26T02:30:07.590Z,1009.06
2019-05-26T02:31:07.559Z,1009.11
2019-05-26T02:32:07.535Z,1009.08
2019-05-26T02:33:07.525Z,1009.06
2019-05-26T02:34:07.515Z,1009.02
2019-05-26T02:35:07.534Z,1009.08
2019-05-26T02:36:07.493Z,1009.08
2019-05-26T02:37:07.488Z,1009.07
2019-05-26T02:38:07.471Z,1009.09
2019-05-26T02:39:07.460Z,1009.05
2019-05-26T02:40:07.475Z,1009.06
2019-05-26T02:41:07.440Z,1009.07
2019-05-26T02:42:07.426Z,1009.10
2019-05-26T02:43:07.420Z,1009.10
2019-05-26T02:44:07.403Z,1009.06
2019-05-26T02:45:07.416Z,1009.08
2019-05-26T02:46:07.397Z,1009.11
2019-05-26T02:47:07.368Z,1009.11
2019-05-26T02:48:07.360Z,1009.10
2019-05-26T02:49:07.349Z,1009.07
2019-05-26T02:50:07.371Z,1009.10
2019-05-26T02:51:07.326Z,1009.10
2019-05-26T02:52:07.327Z,1009.12
2019-05-26T02:53:07.302Z,1009.10
2019-05-26T02:54:07.302Z,1009.11
2019-05-26T02:55:07.307Z,1009.12
2019-05-26T02:56:07.271Z,1009.10
2019-05-26T02:57:07.259Z,1009.13
2019-05-26T02:58:07.256Z,1009.10
2019-05-26T02:59:07.241Z,1009.11
2019-05-26T03:00:07.263Z,1009.09
2019-05-26T03:01:07.214Z,1009.10
2019-05-26T03:02:07.202Z,1009.13
2019-05-26T03:03:07.194Z,1009.09
2019-05-26T03:04:07.183Z,1009.12
2019-05-26T03:05:07.197Z,1009.07
2019-05-26T03:06:07.159Z,1009.08
2019-05-26T03:07:07.149Z,1009.07
2019-05-26T03:08:07.141Z,1009.10
2019-05-26T03:09:22.128Z,1009.09
2019-05-26T03:10:08.145Z,1009.15
2019-05-26T03:11:07.107Z,1009.12
2019-05-26T03:12:07.098Z,1009.16
2019-05-26T03:13:07.089Z,1009.15
2019-05-26T03:14:07.078Z,1009.17
2019-05-26T03:15:07.090Z,1009.15
2019-05-26T03:16:07.058Z,1009.13
2019-05-26T03:17:07.043Z,1009.10
2019-05-26T03:18:07.055Z,1009.11
2019-05-26T03:19:07.022Z,1009.10
2019-05-26T03:20:07.041Z,1009.12
2019-05-26T03:21:07.000Z,1009.12
2019-05-26T03:22:06.989Z,1009.10
2019-05-26T03:23:06.978Z,1009.11
2019-05-26T03:24:06.969Z,1009.12
2019-05-26T03:25:06.982Z,1009.10
2019-05-26T03:26:06.978Z,1009.14
2019-05-26T03:27:06.935Z,1009.10
2019-05-26T03:28:06.925Z,1009.10
2019-05-26T03:29:06.915Z,1009.14
2019-05-26T03:30:06.928Z,1009.07
2019-05-26T03:31:06.892Z,1009.12
2019-05-26T03:32:06.882Z,1009.05
2019-05-26T03:33:06.891Z,1009.07
2019-05-26T03:34:06.860Z,1009.08
2019-05-26T03:35:06.878Z,1009.09
2019-05-26T03:36:10.349Z,1009.05
2019-05-26T03:37:06.825Z,1009.02
2019-05-26T03:38:06.825Z,1008.99
2019-05-26T03:39:06.804Z,1009.03
2019-05-26T03:40:06.827Z,1009.02
2019-05-26T03:41:06.783Z,1009.05
2019-05-26T03:42:06.776Z,1009.04
2019-05-26T03:43:06.762Z,1009.10
2019-05-26T03:44:06.754Z,1009.09
2019-05-26T03:45:06.764Z,1009.08
2019-05-26T03:46:06.731Z,1009.10
2019-05-26T03:47:06.719Z,1009.10
2019-05-26T03:48:06.706Z,1009.10
2019-05-26T03:49:06.702Z,1009.12
2019-05-26T03:50:06.722Z,1009.16
2019-05-26T03:51:06.683Z,1009.13
2019-05-26T03:52:06.664Z,1009.09
2019-05-26T03:53:06.802Z,1009.11
2019-05-26T03:54:06.643Z,1009.16
2019-05-26T03:55:06.657Z,1009.10
2019-05-26T03:56:06.626Z,1009.19
2019-05-26T03:57:06.609Z,1009.18
2019-05-26T03:58:06.599Z,1009.18
2019-05-26T03:59:06.607Z,1009.19
2019-05-26T04:00:06.619Z,1009.15
2019-05-26T04:01:06.569Z,1009.19
2019-05-26T04:02:06.557Z,1009.18
2019-05-26T04:03:06.545Z,1009.16
2019-05-26T04:04:06.536Z,1009.15
2019-05-26T04:05:06.550Z,1009.14
2019-05-26T04:06:06.512Z,1009.11
2019-05-26T04:07:06.504Z,1009.12
2019-05-26T04:08:06.494Z,1009.11
2019-05-26T04:09:06.498Z,1009.09
2019-05-26T04:10:06.659Z,1009.09
2019-05-26T04:11:06.462Z,1009.06
2019-05-26T04:12:06.449Z,1009.09
2019-05-26T04:13:06.436Z,1009.05
2019-05-26T04:14:06.441Z,1009.07
2019-05-26T04:15:06.446Z,1009.04
2019-05-26T04:16:06.415Z,1009.05
2019-05-26T04:17:06.394Z,1008.98
2019-05-26T04:18:06.389Z,1009.01
2019-05-26T04:19:06.375Z,1009.00
2019-05-26T04:20:06.409Z,1009.00
2019-05-26T04:21:06.367Z,1008.99
2019-05-26T04:22:06.348Z,1008.96
2019-05-26T04:23:06.331Z,1008.98
2019-05-26T04:24:06.320Z,1008.98
2019-05-26T04:25:06.363Z,1008.96
2019-05-26T04:26:06.301Z,1008.97
2019-05-26T04:27:06.295Z,1008.95
2019-05-26T04:28:06.296Z,1008.93
2019-05-26T04:29:06.275Z,1008.91
2019-05-26T04:30:06.284Z,1008.96
2019-05-26T04:31:06.250Z,1008.96
2019-05-26T04:32:06.284Z,1008.94
2019-05-26T04:33:06.222Z,1008.89
2019-05-26T04:34:06.212Z,1008.93
2019-05-26T04:35:06.250Z,1008.89
2019-05-26T04:36:06.203Z,1008.90
2019-05-26T04:37:06.197Z,1008.88
2019-05-26T04:38:06.168Z,1008.90
2019-05-26T04:39:06.159Z,1008.88
2019-05-26T04:40:25.019Z,1008.88
2019-05-26T04:41:07.135Z,1008.89
2019-05-26T04:42:06.132Z,1008.90
2019-05-26T04:43:06.116Z,1008.93
2019-05-26T04:44:06.116Z,1008.95
2019-05-26T04:45:06.244Z,1008.96
2019-05-26T04:46:06.081Z,1008.94
2019-05-26T04:47:06.071Z,1008.97
2019-05-26T04:48:06.082Z,1008.97
2019-05-26T04:49:06.049Z,1008.99
2019-05-26T04:50:06.062Z,1008.97
2019-05-26T04:51:06.029Z,1008.92
2019-05-26T04:52:06.017Z,1008.96
2019-05-26T04:53:07.391Z,1008.90
2019-05-26T04:54:06.056Z,1008.90
2019-05-26T04:55:06.060Z,1008.87
2019-05-26T04:56:05.988Z,1008.90
2019-05-26T04:57:05.983Z,1008.88
2019-05-26T04:58:05.945Z,1008.90
2019-05-26T04:59:05.946Z,1008.86
2019-05-26T05:00:05.955Z,1008.85
2019-05-26T05:01:05.917Z,1008.84
2019-05-26T05:02:05.937Z,1008.85
2019-05-26T05:03:05.910Z,1008.84
2019-05-26T05:04:05.891Z,1008.83
2019-05-26T05:05:05.920Z,1008.87
2019-05-26T05:06:05.866Z,1008.85
2019-05-26T05:07:05.848Z,1008.81
2019-05-26T05:08:05.835Z,1008.84
2019-05-26T05:09:05.826Z,1008.81
2019-05-26T05:10:05.840Z,1008.79
2019-05-26T05:11:05.811Z,1008.77
2019-05-26T05:12:05.792Z,1008.77
2019-05-26T05:13:05.785Z,1008.73
2019-05-26T05:14:05.769Z,1008.76
2019-05-26T05:15:05.782Z,1008.76
2019-05-26T05:16:05.761Z,1008.76
2019-05-26T05:17:05.741Z,1008.75
2019-05-26T05:18:05.744Z,1008.73
2019-05-26T05:19:05.712Z,1008.79
2019-05-26T05:20:05.727Z,1008.68
2019-05-26T05:21:05.716Z,1008.72
2019-05-26T05:22:05.685Z,1008.75
2019-05-26T05:23:05.674Z,1008.71
2019-05-26T05:24:05.672Z,1008.69
2019-05-26T05:25:13.902Z,1008.72
2019-05-26T05:26:06.673Z,1008.72
2019-05-26T05:27:05.628Z,1008.68
2019-05-26T05:28:05.623Z,1008.68
2019-05-26T05:29:05.605Z,1008.70
2019-05-26T05:30:05.617Z,1008.68
2019-05-26T05:31:05.584Z,1008.67
2019-05-26T05:32:05.576Z,1008.65
2019-05-26T05:33:05.572Z,1008.66
2019-05-26T05:34:05.550Z,1008.63
2019-05-26T05:35:05.565Z,1008.67
2019-05-26T05:36:05.534Z,1008.64
2019-05-26T05:37:05.518Z,1008.56
2019-05-26T05:38:05.511Z,1008.63
2019-05-26T05:39:05.495Z,1008.63
2019-05-26T05:40:05.509Z,1008.59
2019-05-26T05:41:05.474Z,1008.56
2019-05-26T05:42:12.739Z,1008.62
2019-05-26T05:43:05.458Z,1008.62
2019-05-26T05:44:05.450Z,1008.65
2019-05-26T05:45:05.455Z,1008.64
2019-05-26T05:46:05.430Z,1008.59
2019-05-26T05:47:05.408Z,1008.58
2019-05-26T05:48:05.397Z,1008.61
2019-05-26T05:49:05.388Z,1008.54
2019-05-26T05:50:05.402Z,1008.56
2019-05-26T05:51:05.363Z,1008.53
2019-05-26T05:52:05.349Z,1008.55
2019-05-26T05:53:05.344Z,1008.58
2019-05-26T05:54:05.369Z,1008.58
2019-05-26T05:55:05.345Z,1008.58
2019-05-26T05:56:05.345Z,1008.60
2019-05-26T05:57:05.296Z,1008.50
2019-05-26T05:58:05.287Z,1008.56
2019-05-26T05:59:05.274Z,1008.57
2019-05-26T06:00:05.292Z,1008.59
2019-05-26T06:01:05.253Z,1008.55
2019-05-26T06:02:05.244Z,1008.56
2019-05-26T06:03:05.231Z,1008.54
2019-05-26T06:04:05.218Z,1008.57
2019-05-26T06:05:05.234Z,1008.53
2019-05-26T06:06:05.209Z,1008.46
2019-05-26T06:07:05.190Z,1008.47
2019-05-26T06:08:05.176Z,1008.47
2019-05-26T06:09:05.164Z,1008.46
2019-05-26T06:10:05.180Z,1008.42
2019-05-26T06:11:15.890Z,1008.45
2019-05-26T06:12:06.131Z,1008.40
2019-05-26T06:13:05.121Z,1008.46
2019-05-26T06:14:05.112Z,1008.42
2019-05-26T06:15:05.124Z,1008.42
2019-05-26T06:16:05.088Z,1008.44
2019-05-26T06:17:05.077Z,1008.45
2019-05-26T06:18:05.065Z,1008.40
2019-05-26T06:19:05.057Z,1008.42
2019-05-26T06:20:05.074Z,1008.44
2019-05-26T06:21:05.034Z,1008.43
2019-05-26T06:22:05.039Z,1008.43
2019-05-26T06:23:05.015Z,1008.41
2019-05-26T06:24:05.001Z,1008.34
2019-05-26T06:25:05.017Z,1008.34
2019-05-26T06:26:04.976Z,1008.36
2019-05-26T06:27:04.966Z,1008.38
2019-05-26T06:28:04.957Z,1008.36
2019-05-26T06:29:04.943Z,1008.36
2019-05-26T06:30:04.959Z,1008.36
2019-05-26T06:31:04.947Z,1008.32
2019-05-26T06:32:05.125Z,1008.39
2019-05-26T06:33:04.899Z,1008.37
2019-05-26T06:34:04.922Z,1008.36
2019-05-26T06:35:04.901Z,1008.39
2019-05-26T06:36:04.874Z,1008.36
2019-05-26T06:37:04.853Z,1008.33
2019-05-26T06:38:04.843Z,1008.33
2019-05-26T06:39:04.832Z,1008.32
2019-05-26T06:40:04.846Z,1008.41
2019-05-26T06:41:04.812Z,1008.38
2019-05-26T06:42:04.798Z,1008.35
2019-05-26T06:43:04.786Z,1008.37
2019-05-26T06:44:04.775Z,1008.35
2019-05-26T06:45:04.801Z,1008.38
2019-05-26T06:46:04.754Z,1008.30
2019-05-26T06:47:04.745Z,1008.29
2019-05-26T06:48:04.741Z,1008.34
2019-05-26T06:49:04.721Z,1008.31
2019-05-26T06:50:04.736Z,1008.32
2019-05-26T06:51:04.702Z,1008.29
2019-05-26T06:52:04.700Z,1008.28
2019-05-26T06:53:04.684Z,1008.28
2019-05-26T06:54:04.667Z,1008.27
2019-05-26T06:55:04.683Z,1008.25
2019-05-26T06:56:04.646Z,1008.21
2019-05-26T06:57:04.712Z,1008.21
2019-05-26T06:58:04.623Z,1008.29
2019-05-26T06:59:04.613Z,1008.23
2019-05-26T07:00:04.634Z,1008.26
2019-05-26T07:01:04.594Z,1008.23
2019-05-26T07:02:04.598Z,1008.22
2019-05-26T07:03:04.568Z,1008.24
2019-05-26T07:04:04.558Z,1008.25
2019-05-26T07:05:04.576Z,1008.22
2019-05-26T07:06:04.536Z,1008.24
2019-05-26T07:07:04.526Z,1008.24
2019-05-26T07:08:04.514Z,1008.25
2019-05-26T07:09:04.502Z,1008.23
2019-05-26T07:10:04.521Z,1008.22
2019-05-26T07:11:04.481Z,1008.17
2019-05-26T07:12:04.469Z,1008.19
2019-05-26T07:13:04.458Z,1008.21
2019-05-26T07:14:04.447Z,1008.15
2019-05-26T07:15:04.460Z,1008.18
2019-05-26T07:16:04.427Z,1008.19
2019-05-26T07:17:04.415Z,1008.19
2019-05-26T07:18:04.455Z,1008.14
2019-05-26T07:19:04.392Z,1008.08
2019-05-26T07:20:04.406Z,1008.05
2019-05-26T07:21:04.372Z,1008.05
2019-05-26T07:22:04.365Z,1008.06
2019-05-26T07:23:06.134Z,1008.09
2019-05-26T07:24:04.355Z,1008.06
2019-05-26T07:25:04.366Z,1008.06
2019-05-26T07:26:04.454Z,1008.00
2019-05-26T07:27:04.318Z,1008.00
2019-05-26T07:28:04.293Z,1007.99
2019-05-26T07:29:04.283Z,1008.02
2019-05-26T07:30:04.298Z,1008.00
2019-05-26T07:31:04.275Z,1007.95
2019-05-26T07:32:04.249Z,1007.98
2019-05-26T07:33:04.241Z,1007.93
2019-05-26T07:34:04.228Z,1007.99
2019-05-26T07:35:04.243Z,1007.98
2019-05-26T07:36:04.205Z,1007.99
2019-05-26T07:37:04.220Z,1007.98
2019-05-26T07:38:04.187Z,1007.91
2019-05-26T07:39:04.172Z,1007.92
2019-05-26T07:40:04.191Z,1007.91
2019-05-26T07:41:04.149Z,1007.87
2019-05-26T07:42:10.703Z,1007.90
2019-05-26T07:43:05.135Z,1007.89
2019-05-26T07:44:04.125Z,1007.93
2019-05-26T07:45:25.142Z,1007.90
2019-05-26T07:47:12.014Z,1007.92
2019-05-26T07:48:12.000Z,1007.90
2019-05-26T07:49:12.016Z,1007.89
2019-05-26T07:50:12.074Z,1007.91
2019-05-26T07:51:11.961Z,1007.88
2019-05-26T07:52:11.949Z,1007.83
2019-05-26T07:53:11.939Z,1007.88
2019-05-26T07:54:24.510Z,1007.86
2019-05-26T07:55:12.941Z,1007.90
2019-05-26T07:56:11.910Z,1007.83
2019-05-26T07:57:11.895Z,1007.88
2019-05-26T07:58:11.884Z,1007.87
2019-05-26T07:59:11.872Z,1007.88
2019-05-26T08:00:11.903Z,1007.87
2019-05-26T08:01:11.853Z,1007.89
2019-05-26T08:02:11.843Z,1007.86
2019-05-26T08:03:11.830Z,1007.90
2019-05-26T08:04:11.817Z,1007.91
2019-05-26T08:05:11.832Z,1007.91
2019-05-26T08:06:11.876Z,1007.90
2019-05-26T08:07:11.785Z,1007.87
2019-05-26T08:08:13.368Z,1007.89
2019-05-26T08:09:11.767Z,1007.92
2019-05-26T08:10:11.782Z,1007.96
2019-05-26T08:11:11.746Z,1007.91
2019-05-26T08:12:24.861Z,1007.90
2019-05-26T08:13:12.717Z,1007.86
2019-05-26T08:14:11.711Z,1007.88
2019-05-26T08:15:11.722Z,1007.90
2019-05-26T08:16:11.686Z,1007.87
2019-05-26T08:17:11.678Z,1007.88
2019-05-26T08:18:11.666Z,1007.84
2019-05-26T08:19:11.654Z,1007.79
2019-05-26T08:20:11.699Z,1007.82
2019-05-26T08:21:11.688Z,1007.70
2019-05-26T08:22:11.625Z,1007.74
2019-05-26T08:23:11.614Z,1007.72
2019-05-26T08:24:11.607Z,1007.73
2019-05-26T08:25:11.616Z,1007.73
2019-05-26T08:26:11.577Z,1007.70
2019-05-26T08:27:11.569Z,1007.68
2019-05-26T08:28:11.580Z,1007.66
2019-05-26T08:29:11.548Z,1007.70
2019-05-26T08:30:11.566Z,1007.64
2019-05-26T08:31:13.430Z,1007.61
2019-05-26T08:32:11.516Z,1007.56
2019-05-26T08:33:11.532Z,1007.55
2019-05-26T08:34:11.492Z,1007.53
2019-05-26T08:35:11.508Z,1007.58
2019-05-26T08:36:11.471Z,1007.51
2019-05-26T08:37:11.463Z,1007.50
2019-05-26T08:38:11.449Z,1007.46
2019-05-26T08:39:11.437Z,1007.46
2019-05-26T08:40:11.464Z,1007.46
2019-05-26T08:41:11.415Z,1007.46
2019-05-26T08:42:24.617Z,1007.45
2019-05-26T08:43:12.394Z,1007.43
2019-05-26T08:44:11.383Z,1007.43
2019-05-26T08:45:11.396Z,1007.46
2019-05-26T08:46:11.360Z,1007.40
2019-05-26T08:47:11.353Z,1007.40
2019-05-26T08:48:11.343Z,1007.32
2019-05-26T08:49:11.327Z,1007.35
2019-05-26T08:50:11.343Z,1007.33
2019-05-26T08:51:11.305Z,1007.32
2019-05-26T08:52:11.296Z,1007.31
2019-05-26T08:53:11.282Z,1007.31
2019-05-26T08:54:11.274Z,1007.26
2019-05-26T08:55:11.285Z,1007.31
2019-05-26T08:56:11.254Z,1007.33
2019-05-26T08:57:11.238Z,1007.31
2019-05-26T08:58:11.229Z,1007.31
2019-05-26T08:59:11.218Z,1007.22
2019-05-26T09:00:11.230Z,1007.24
2019-05-26T09:01:11.194Z,1007.19
2019-05-26T09:02:11.181Z,1007.16
2019-05-26T09:03:11.169Z,1007.18
2019-05-26T09:04:11.157Z,1007.11
2019-05-26T09:05:11.173Z,1007.14
2019-05-26T09:06:11.137Z,1007.13
2019-05-26T09:07:11.125Z,1007.15
2019-05-26T09:08:11.116Z,1007.13
2019-05-26T09:09:11.103Z,1007.09
2019-05-26T09:10:11.123Z,1007.13
2019-05-26T09:11:11.081Z,1007.13
2019-05-26T09:12:11.072Z,1007.14
2019-05-26T09:13:11.062Z,1007.10
2019-05-26T09:14:11.065Z,1007.11
2019-05-26T09:15:11.070Z,1007.09
2019-05-26T09:16:11.030Z,1007.12
2019-05-26T09:17:11.017Z,1007.01
2019-05-26T09:18:11.004Z,1007.08
2019-05-26T09:19:10.993Z,1007.05
2019-05-26T09:20:11.960Z,1007.09
2019-05-26T09:21:10.973Z,1006.97
2019-05-26T09:22:10.960Z,1006.92
2019-05-26T09:23:10.950Z,1007.03
2019-05-26T09:24:10.940Z,1006.99
2019-05-26T09:25:10.953Z,1006.94
2019-05-26T09:26:10.922Z,1006.97
2019-05-26T09:27:10.907Z,1006.97
2019-05-26T09:28:10.894Z,1006.85
2019-05-26T09:29:10.886Z,1006.84
2019-05-26T09:30:10.900Z,1006.85
2019-05-26T09:31:10.864Z,1006.87
2019-05-26T09:32:10.853Z,1006.94
2019-05-26T09:33:10.844Z,1006.85
2019-05-26T09:34:10.833Z,1006.86
2019-05-26T09:35:10.847Z,1006.97
2019-05-26T09:36:10.811Z,1006.89
2019-05-26T09:37:10.805Z,1006.81
2019-05-26T09:38:10.791Z,1006.84
2019-05-26T09:39:10.780Z,1006.79
2019-05-26T09:40:10.796Z,1006.78
2019-05-26T09:41:10.758Z,1006.89
2019-05-26T09:42:10.748Z,1006.88
2019-05-26T09:43:16.137Z,1006.74
2019-05-26T09:44:11.724Z,1006.80
2019-05-26T09:45:10.739Z,1006.88
2019-05-26T09:46:10.702Z,1006.86
2019-05-26T09:47:10.695Z,1006.78
2019-05-26T09:48:10.680Z,1006.83
2019-05-26T09:49:10.679Z,1006.79
2019-05-26T09:50:10.692Z,1006.77
2019-05-26T09:51:10.649Z,1006.77
2019-05-26T09:52:10.638Z,1006.74
2019-05-26T09:53:10.626Z,1006.64
2019-05-26T09:54:12.609Z,1006.77
2019-05-26T09:55:10.633Z,1006.73
2019-05-26T09:56:10.603Z,1006.72
2019-05-26T09:57:10.584Z,1006.67
2019-05-26T09:58:10.571Z,1006.66
2019-05-26T09:59:10.561Z,1006.65
2019-05-26T10:00:10.576Z,1006.64
2019-05-26T10:01:10.538Z,1006.62
2019-05-26T10:02:10.530Z,1006.63
2019-05-26T10:03:10.519Z,1006.69
2019-05-26T10:04:10.617Z,1006.64
2019-05-26T10:05:10.521Z,1006.62
2019-05-26T10:06:10.483Z,1006.63
2019-05-26T10:07:14.879Z,1006.57
2019-05-26T10:08:11.463Z,1006.57
2019-05-26T10:09:10.450Z,1006.53
2019-05-26T10:10:10.468Z,1006.53
2019-05-26T10:11:10.428Z,1006.55
2019-05-26T10:12:10.424Z,1006.51
2019-05-26T10:13:10.429Z,1006.51
2019-05-26T10:14:10.426Z,1006.49
2019-05-26T10:15:10.409Z,1006.51
2019-05-26T10:16:10.391Z,1006.47
2019-05-26T10:17:10.360Z,1006.53
2019-05-26T10:18:10.353Z,1006.41
2019-05-26T10:19:10.340Z,1006.44
2019-05-26T10:20:10.355Z,1006.42
2019-05-26T10:21:10.324Z,1006.55
2019-05-26T10:22:10.321Z,1006.50
2019-05-26T10:23:10.297Z,1006.52
2019-05-26T10:24:10.288Z,1006.39
2019-05-26T10:25:10.302Z,1006.44
2019-05-26T10:26:10.267Z,1006.45
2019-05-26T10:27:10.368Z,1006.42
2019-05-26T10:28:10.244Z,1006.43
2019-05-26T10:29:10.240Z,1006.43
2019-05-26T10:30:10.404Z,1006.37
2019-05-26T10:31:10.218Z,1006.35
2019-05-26T10:32:10.206Z,1006.39
2019-05-26T10:33:10.220Z,1006.37
2019-05-26T10:34:13.602Z,1006.37
2019-05-26T10:35:10.195Z,1006.29
2019-05-26T10:36:10.163Z,1006.34
2019-05-26T10:37:10.149Z,1006.35
2019-05-26T10:38:10.138Z,1006.35
2019-05-26T10:39:10.128Z,1006.39
2019-05-26T10:40:10.143Z,1006.38
2019-05-26T10:41:10.109Z,1006.40
2019-05-26T10:42:10.095Z,1006.31
2019-05-26T10:43:10.094Z,1006.30
2019-05-26T10:44:10.074Z,1006.33
2019-05-26T10:45:10.091Z,1006.35
2019-05-26T10:46:10.056Z,1006.24
2019-05-26T10:47:10.061Z,1006.27
2019-05-26T10:48:10.036Z,1006.28
2019-05-26T10:49:10.026Z,1006.27
2019-05-26T10:50:10.151Z,1006.27
2019-05-26T10:51:10.016Z,1006.20
2019-05-26T10:52:10.009Z,1006.22
2019-05-26T10:53:09.979Z,1006.25
2019-05-26T10:54:09.969Z,1006.21
2019-05-26T10:55:09.981Z,1006.15
2019-05-26T10:56:09.944Z,1006.17
2019-05-26T10:57:09.932Z,1006.12
2019-05-26T10:58:09.921Z,1006.08
2019-05-26T10:59:09.911Z,1006.15
2019-05-26T11:00:09.926Z,1006.14
2019-05-26T11:01:09.892Z,1006.09
2019-05-26T11:02:09.878Z,1006.21
2019-05-26T11:03:09.873Z,1006.18
2019-05-26T11:04:09.855Z,1006.07
2019-05-26T11:05:09.870Z,1006.08
2019-05-26T11:06:09.833Z,1006.00
2019-05-26T11:07:09.823Z,1005.99
2019-05-26T11:08:09.812Z,1005.98
2019-05-26T11:09:09.802Z,1005.98
2019-05-26T11:10:09.816Z,1005.99
2019-05-26T11:11:09.783Z,1005.89
2019-05-26T11:12:09.773Z,1005.94
2019-05-26T11:13:09.762Z,1005.93
2019-05-26T11:14:09.748Z,1005.85
2019-05-26T11:15:09.769Z,1005.87
2019-05-26T11:16:09.727Z,1005.98
2019-05-26T11:17:09.718Z,1005.91
2019-05-26T11:18:09.707Z,1005.89
2019-05-26T11:19:09.696Z,1005.95
2019-05-26T11:20:09.709Z,1005.89
2019-05-26T11:21:12.325Z,1005.84
2019-05-26T11:22:09.665Z,1005.82
2019-05-26T11:23:09.654Z,1005.83
2019-05-26T11:24:09.642Z,1005.90
2019-05-26T11:25:09.657Z,1005.86
2019-05-26T11:26:09.627Z,1005.85
2019-05-26T11:27:12.458Z,1005.85
2019-05-26T11:28:09.597Z,1005.81
2019-05-26T11:29:09.591Z,1005.80
2019-05-26T11:30:09.601Z,1005.82
2019-05-26T11:31:09.565Z,1005.80
2019-05-26T11:32:09.567Z,1005.81
2019-05-26T11:33:09.541Z,1005.82
2019-05-26T11:34:09.536Z,1005.76
2019-05-26T11:35:09.545Z,1005.73
2019-05-26T11:36:09.556Z,1005.75
2019-05-26T11:37:09.502Z,1005.74
2019-05-26T11:38:09.498Z,1005.80
2019-05-26T11:39:09.477Z,1005.80
2019-05-26T11:40:09.490Z,1005.76
2019-05-26T11:41:09.478Z,1005.76
2019-05-26T11:42:15.813Z,1005.74
2019-05-26T11:43:16.860Z,1005.75
2019-05-26T11:44:18.065Z,1005.75
2019-05-26T11:45:10.436Z,1005.72
2019-05-26T11:46:09.399Z,1005.62
2019-05-26T11:47:09.392Z,1005.77
2019-05-26T11:48:09.377Z,1005.61
2019-05-26T11:49:09.367Z,1005.66
2019-05-26T11:50:09.383Z,1005.57
2019-05-26T11:51:09.349Z,1005.60
2019-05-26T11:52:09.340Z,1005.69
2019-05-26T11:53:09.328Z,1005.57
2019-05-26T11:54:09.314Z,1005.59
2019-05-26T11:55:09.328Z,1005.55
2019-05-26T11:56:09.292Z,1005.51
2019-05-26T11:57:09.281Z,1005.54
2019-05-26T11:58:09.276Z,1005.51
2019-05-26T11:59:09.259Z,1005.49
2019-05-26T12:00:10.370Z,1005.46
2019-05-26T12:01:09.238Z,1005.50
2019-05-26T12:02:09.234Z,1005.46
2019-05-26T12:03:09.218Z,1005.42
2019-05-26T12:04:09.205Z,1005.40
2019-05-26T12:05:09.223Z,1005.46
2019-05-26T12:06:09.188Z,1005.39